sensor_id;sensor_type;location;lat;lon;timestamp;P1;durP1;ratioP1;P2;durP2;ratioP2
54259;SDS011;40172;53.022;7.012;2023-07-30T00:01:19;17.27;;;6.43;;
54259;SDS011;40172;53.022;7.012;2023-07-30T00:03:45;16.40;;;6.43;;
54259;SDS011;40172;53.022;7.012;2023-07-30T00:06:10;16.48;;;6.72;;
54259;SDS011;40172;53.022;7.012;2023-07-30T00:08:36;13.90;;;6.60;;
54259;SDS011;40172;53.022;7.012;2023-07-30T00:11:01;18.70;;;6.85;;
54259;SDS011;40172;53.022;7.012;2023-07-30T00:13:27;13.95;;;6.70;;
54259;SDS011;40172;53.022;7.012;2023-07-30T00:15:52;11.45;;;6.22;;
54259;SDS011;40172;53.022;7.012;2023-07-30T00:18:18;14.00;;;6.20;;
54259;SDS011;40172;53.022;7.012;2023-07-30T00:20:44;20.00;;;6.50;;
54259;SDS011;40172;53.022;7.012;2023-07-30T00:23:09;17.42;;;6.93;;
54259;SDS011;40172;53.022;7.012;2023-07-30T00:25:35;14.93;;;6.70;;
54259;SDS011;40172;53.022;7.012;2023-07-30T00:28:01;16.83;;;6.75;;
54259;SDS011;40172;53.022;7.012;2023-07-30T00:30:26;17.35;;;6.60;;
54259;SDS011;40172;53.022;7.012;2023-07-30T00:32:52;20.35;;;6.90;;
54259;SDS011;40172;53.022;7.012;2023-07-30T00:35:17;17.23;;;7.05;;
54259;SDS011;40172;53.022;7.012;2023-07-30T00:37:43;16.55;;;6.47;;
54259;SDS011;40172;53.022;7.012;2023-07-30T00:40:09;18.60;;;6.45;;
54259;SDS011;40172;53.022;7.012;2023-07-30T00:42:35;27.48;;;6.68;;
54259;SDS011;40172;53.022;7.012;2023-07-30T00:45:00;21.30;;;7.22;;
54259;SDS011;40172;53.022;7.012;2023-07-30T00:47:26;16.95;;;6.18;;
54259;SDS011;40172;53.022;7.012;2023-07-30T00:49:52;19.23;;;6.22;;
54259;SDS011;40172;53.022;7.012;2023-07-30T00:52:18;20.55;;;6.47;;
54259;SDS011;40172;53.022;7.012;2023-07-30T00:54:48;20.33;;;6.32;;
54259;SDS011;40172;53.022;7.012;2023-07-30T00:57:17;23.60;;;6.47;;
54259;SDS011;40172;53.022;7.012;2023-07-30T00:59:44;21.17;;;5.95;;
54259;SDS011;40172;53.022;7.012;2023-07-30T01:02:10;24.95;;;6.15;;
54259;SDS011;40172;53.022;7.012;2023-07-30T01:04:37;20.48;;;6.47;;
54259;SDS011;40172;53.022;7.012;2023-07-30T01:07:04;24.30;;;6.32;;
54259;SDS011;40172;53.022;7.012;2023-07-30T01:09:31;18.35;;;6.22;;
54259;SDS011;40172;53.022;7.012;2023-07-30T01:11:56;18.17;;;6.50;;
54259;SDS011;40172;53.022;7.012;2023-07-30T01:14:23;22.70;;;6.65;;
54259;SDS011;40172;53.022;7.012;2023-07-30T01:16:51;21.73;;;6.30;;
54259;SDS011;40172;53.022;7.012;2023-07-30T01:19:17;17.38;;;6.07;;
54259;SDS011;40172;53.022;7.012;2023-07-30T01:24:08;20.35;;;6.90;;
54259;SDS011;40172;53.022;7.012;2023-07-30T01:26:44;17.27;;;6.10;;
54259;SDS011;40172;53.022;7.012;2023-07-30T01:29:24;19.15;;;6.05;;
54259;SDS011;40172;53.022;7.012;2023-07-30T01:31:56;28.02;;;6.82;;
54259;SDS011;40172;53.022;7.012;2023-07-30T01:34:24;23.00;;;7.00;;
54259;SDS011;40172;53.022;7.012;2023-07-30T01:36:53;23.50;;;6.05;;
54259;SDS011;40172;53.022;7.012;2023-07-30T01:39:19;18.23;;;6.28;;
54259;SDS011;40172;53.022;7.012;2023-07-30T01:41:45;20.48;;;6.57;;
54259;SDS011;40172;53.022;7.012;2023-07-30T01:44:11;25.80;;;6.47;;
54259;SDS011;40172;53.022;7.012;2023-07-30T01:46:36;20.80;;;6.68;;
54259;SDS011;40172;53.022;7.012;2023-07-30T01:49:02;24.00;;;6.85;;
54259;SDS011;40172;53.022;7.012;2023-07-30T01:51:28;22.65;;;6.93;;
54259;SDS011;40172;53.022;7.012;2023-07-30T01:53:54;25.65;;;7.00;;
54259;SDS011;40172;53.022;7.012;2023-07-30T01:56:19;25.15;;;7.07;;
54259;SDS011;40172;53.022;7.012;2023-07-30T01:58:45;28.27;;;7.70;;
54259;SDS011;40172;53.022;7.012;2023-07-30T02:01:10;26.92;;;6.28;;
54259;SDS011;40172;53.022;7.012;2023-07-30T02:03:36;22.95;;;7.55;;
54259;SDS011;40172;53.022;7.012;2023-07-30T02:06:01;25.35;;;9.63;;
54259;SDS011;40172;53.022;7.012;2023-07-30T02:08:27;34.47;;;13.52;;
54259;SDS011;40172;53.022;7.012;2023-07-30T02:10:59;35.33;;;13.25;;
54259;SDS011;40172;53.022;7.012;2023-07-30T02:13:25;35.97;;;11.25;;
54259;SDS011;40172;53.022;7.012;2023-07-30T02:15:51;27.63;;;9.18;;
54259;SDS011;40172;53.022;7.012;2023-07-30T02:18:17;29.35;;;8.30;;
54259;SDS011;40172;53.022;7.012;2023-07-30T02:20:42;23.65;;;7.20;;
54259;SDS011;40172;53.022;7.012;2023-07-30T02:23:08;24.25;;;6.95;;
54259;SDS011;40172;53.022;7.012;2023-07-30T02:25:34;25.50;;;6.13;;
54259;SDS011;40172;53.022;7.012;2023-07-30T02:27:59;24.20;;;6.55;;
54259;SDS011;40172;53.022;7.012;2023-07-30T02:30:26;21.85;;;5.93;;
54259;SDS011;40172;53.022;7.012;2023-07-30T02:32:52;20.75;;;5.18;;
54259;SDS011;40172;53.022;7.012;2023-07-30T02:35:18;20.75;;;6.28;;
54259;SDS011;40172;53.022;7.012;2023-07-30T02:37:43;21.98;;;6.22;;
54259;SDS011;40172;53.022;7.012;2023-07-30T02:40:09;23.38;;;5.82;;
54259;SDS011;40172;53.022;7.012;2023-07-30T02:42:35;17.92;;;5.72;;
54259;SDS011;40172;53.022;7.012;2023-07-30T02:45:00;18.83;;;5.38;;
54259;SDS011;40172;53.022;7.012;2023-07-30T02:47:26;21.23;;;5.88;;
54259;SDS011;40172;53.022;7.012;2023-07-30T02:49:52;19.67;;;5.70;;
54259;SDS011;40172;53.022;7.012;2023-07-30T02:52:17;23.45;;;5.65;;
54259;SDS011;40172;53.022;7.012;2023-07-30T02:54:43;26.70;;;5.72;;
54259;SDS011;40172;53.022;7.012;2023-07-30T02:57:09;27.13;;;5.90;;
54259;SDS011;40172;53.022;7.012;2023-07-30T02:59:35;25.67;;;5.82;;
54259;SDS011;40172;53.022;7.012;2023-07-30T03:02:02;17.65;;;5.25;;
54259;SDS011;40172;53.022;7.012;2023-07-30T03:04:30;26.27;;;5.72;;
54259;SDS011;40172;53.022;7.012;2023-07-30T03:06:56;21.95;;;5.53;;
54259;SDS011;40172;53.022;7.012;2023-07-30T03:09:21;13.82;;;4.65;;
54259;SDS011;40172;53.022;7.012;2023-07-30T03:11:47;19.63;;;5.32;;
54259;SDS011;40172;53.022;7.012;2023-07-30T03:14:14;22.20;;;5.43;;
54259;SDS011;40172;53.022;7.012;2023-07-30T03:16:39;27.52;;;5.30;;
54259;SDS011;40172;53.022;7.012;2023-07-30T03:19:05;21.65;;;5.38;;
54259;SDS011;40172;53.022;7.012;2023-07-30T03:21:31;19.02;;;4.50;;
54259;SDS011;40172;53.022;7.012;2023-07-30T03:23:56;21.60;;;5.05;;
54259;SDS011;40172;53.022;7.012;2023-07-30T03:26:22;23.65;;;4.80;;
54259;SDS011;40172;53.022;7.012;2023-07-30T03:28:47;19.08;;;4.50;;
54259;SDS011;40172;53.022;7.012;2023-07-30T03:31:13;27.17;;;4.95;;
54259;SDS011;40172;53.022;7.012;2023-07-30T03:33:39;17.65;;;4.82;;
54259;SDS011;40172;53.022;7.012;2023-07-30T03:36:08;15.57;;;4.65;;
54259;SDS011;40172;53.022;7.012;2023-07-30T03:38:38;17.63;;;4.15;;
54259;SDS011;40172;53.022;7.012;2023-07-30T03:41:04;21.50;;;5.00;;
54259;SDS011;40172;53.022;7.012;2023-07-30T03:43:31;20.70;;;4.50;;
54259;SDS011;40172;53.022;7.012;2023-07-30T03:46:00;17.48;;;4.20;;
54259;SDS011;40172;53.022;7.012;2023-07-30T03:48:26;18.10;;;4.70;;
54259;SDS011;40172;53.022;7.012;2023-07-30T03:50:55;19.02;;;4.82;;
54259;SDS011;40172;53.022;7.012;2023-07-30T03:53:21;14.23;;;4.53;;
54259;SDS011;40172;53.022;7.012;2023-07-30T03:55:47;17.20;;;4.88;;
54259;SDS011;40172;53.022;7.012;2023-07-30T03:58:13;19.80;;;4.43;;
54259;SDS011;40172;53.022;7.012;2023-07-30T04:00:39;17.52;;;4.53;;
54259;SDS011;40172;53.022;7.012;2023-07-30T04:03:04;18.88;;;4.50;;
54259;SDS011;40172;53.022;7.012;2023-07-30T04:05:30;19.35;;;4.78;;
54259;SDS011;40172;53.022;7.012;2023-07-30T04:07:56;16.92;;;4.65;;
54259;SDS011;40172;53.022;7.012;2023-07-30T04:10:22;22.75;;;5.43;;
54259;SDS011;40172;53.022;7.012;2023-07-30T04:12:47;20.38;;;5.00;;
54259;SDS011;40172;53.022;7.012;2023-07-30T04:15:14;19.60;;;4.50;;
54259;SDS011;40172;53.022;7.012;2023-07-30T04:17:40;17.65;;;5.00;;
54259;SDS011;40172;53.022;7.012;2023-07-30T04:20:06;20.67;;;4.68;;
54259;SDS011;40172;53.022;7.012;2023-07-30T04:22:34;27.80;;;5.78;;
54259;SDS011;40172;53.022;7.012;2023-07-30T04:25:00;21.35;;;4.90;;
54259;SDS011;40172;53.022;7.012;2023-07-30T04:27:26;19.63;;;5.00;;
54259;SDS011;40172;53.022;7.012;2023-07-30T04:29:51;23.45;;;5.20;;
54259;SDS011;40172;53.022;7.012;2023-07-30T04:32:17;16.65;;;4.57;;
54259;SDS011;40172;53.022;7.012;2023-07-30T04:34:42;17.67;;;2.03;;
54259;SDS011;40172;53.022;7.012;2023-07-30T04:37:08;5.10;;;1.65;;
54259;SDS011;40172;53.022;7.012;2023-07-30T04:39:34;5.95;;;1.38;;
54259;SDS011;40172;53.022;7.012;2023-07-30T04:42:00;16.80;;;4.78;;
54259;SDS011;40172;53.022;7.012;2023-07-30T04:44:26;20.27;;;4.43;;
54259;SDS011;40172;53.022;7.012;2023-07-30T04:46:51;20.95;;;4.90;;
54259;SDS011;40172;53.022;7.012;2023-07-30T04:49:17;17.52;;;4.80;;
54259;SDS011;40172;53.022;7.012;2023-07-30T04:51:42;20.73;;;5.47;;
54259;SDS011;40172;53.022;7.012;2023-07-30T04:54:08;18.40;;;4.63;;
54259;SDS011;40172;53.022;7.012;2023-07-30T04:56:33;20.33;;;5.75;;
54259;SDS011;40172;53.022;7.012;2023-07-30T04:58:59;22.30;;;4.75;;
54259;SDS011;40172;53.022;7.012;2023-07-30T05:01:25;19.25;;;4.53;;
54259;SDS011;40172;53.022;7.012;2023-07-30T05:03:51;20.13;;;4.93;;
54259;SDS011;40172;53.022;7.012;2023-07-30T05:06:16;23.10;;;5.65;;
54259;SDS011;40172;53.022;7.012;2023-07-30T05:08:42;19.20;;;5.45;;
54259;SDS011;40172;53.022;7.012;2023-07-30T05:11:08;18.25;;;5.00;;
54259;SDS011;40172;53.022;7.012;2023-07-30T05:13:33;21.90;;;5.35;;
54259;SDS011;40172;53.022;7.012;2023-07-30T05:15:59;19.30;;;4.90;;
54259;SDS011;40172;53.022;7.012;2023-07-30T05:18:24;21.75;;;4.95;;
54259;SDS011;40172;53.022;7.012;2023-07-30T05:20:50;20.08;;;5.57;;
54259;SDS011;40172;53.022;7.012;2023-07-30T05:23:15;20.67;;;5.80;;
54259;SDS011;40172;53.022;7.012;2023-07-30T05:25:41;24.17;;;5.25;;
54259;SDS011;40172;53.022;7.012;2023-07-30T05:28:07;22.95;;;5.68;;
54259;SDS011;40172;53.022;7.012;2023-07-30T05:30:33;21.90;;;5.57;;
54259;SDS011;40172;53.022;7.012;2023-07-30T05:32:59;16.17;;;5.20;;
54259;SDS011;40172;53.022;7.012;2023-07-30T05:35:24;22.95;;;4.75;;
54259;SDS011;40172;53.022;7.012;2023-07-30T05:37:50;20.98;;;5.47;;
54259;SDS011;40172;53.022;7.012;2023-07-30T05:40:16;22.15;;;5.80;;
54259;SDS011;40172;53.022;7.012;2023-07-30T05:42:41;28.42;;;5.70;;
54259;SDS011;40172;53.022;7.012;2023-07-30T05:45:07;24.73;;;5.88;;
54259;SDS011;40172;53.022;7.012;2023-07-30T05:47:33;21.50;;;5.03;;
54259;SDS011;40172;53.022;7.012;2023-07-30T05:49:59;23.95;;;5.80;;
54259;SDS011;40172;53.022;7.012;2023-07-30T05:52:24;28.70;;;6.30;;
54259;SDS011;40172;53.022;7.012;2023-07-30T05:54:50;21.48;;;5.45;;
54259;SDS011;40172;53.022;7.012;2023-07-30T05:57:15;24.52;;;5.50;;
54259;SDS011;40172;53.022;7.012;2023-07-30T05:59:41;24.20;;;6.38;;
54259;SDS011;40172;53.022;7.012;2023-07-30T06:02:06;23.08;;;5.68;;
54259;SDS011;40172;53.022;7.012;2023-07-30T06:04:32;22.40;;;5.30;;
54259;SDS011;40172;53.022;7.012;2023-07-30T06:07:01;24.08;;;5.93;;
54259;SDS011;40172;53.022;7.012;2023-07-30T06:09:27;21.15;;;5.38;;
54259;SDS011;40172;53.022;7.012;2023-07-30T06:11:53;24.33;;;5.63;;
54259;SDS011;40172;53.022;7.012;2023-07-30T06:14:19;28.55;;;5.60;;
54259;SDS011;40172;53.022;7.012;2023-07-30T06:16:45;22.10;;;6.20;;
54259;SDS011;40172;53.022;7.012;2023-07-30T06:19:10;24.88;;;6.53;;
54259;SDS011;40172;53.022;7.012;2023-07-30T06:21:36;27.83;;;6.03;;
54259;SDS011;40172;53.022;7.012;2023-07-30T06:24:01;21.17;;;5.20;;
54259;SDS011;40172;53.022;7.012;2023-07-30T06:26:27;25.48;;;6.28;;
54259;SDS011;40172;53.022;7.012;2023-07-30T06:28:53;22.70;;;5.82;;
54259;SDS011;40172;53.022;7.012;2023-07-30T06:31:18;20.70;;;6.65;;
54259;SDS011;40172;53.022;7.012;2023-07-30T06:33:44;22.23;;;5.60;;
54259;SDS011;40172;53.022;7.012;2023-07-30T06:36:09;23.23;;;5.80;;
54259;SDS011;40172;53.022;7.012;2023-07-30T06:38:35;23.45;;;5.68;;
54259;SDS011;40172;53.022;7.012;2023-07-30T06:41:00;22.52;;;5.25;;
54259;SDS011;40172;53.022;7.012;2023-07-30T06:43:26;25.80;;;6.15;;
54259;SDS011;40172;53.022;7.012;2023-07-30T06:45:53;21.83;;;5.85;;
54259;SDS011;40172;53.022;7.012;2023-07-30T06:48:19;28.55;;;5.82;;
54259;SDS011;40172;53.022;7.012;2023-07-30T06:50:45;25.15;;;5.80;;
54259;SDS011;40172;53.022;7.012;2023-07-30T06:53:10;25.33;;;6.28;;
54259;SDS011;40172;53.022;7.012;2023-07-30T06:55:36;28.73;;;6.10;;
54259;SDS011;40172;53.022;7.012;2023-07-30T06:58:02;27.15;;;6.35;;
54259;SDS011;40172;53.022;7.012;2023-07-30T07:00:27;23.60;;;6.15;;
54259;SDS011;40172;53.022;7.012;2023-07-30T07:02:53;22.48;;;6.22;;
54259;SDS011;40172;53.022;7.012;2023-07-30T07:05:18;19.35;;;5.70;;
54259;SDS011;40172;53.022;7.012;2023-07-30T07:07:44;23.63;;;5.97;;
54259;SDS011;40172;53.022;7.012;2023-07-30T07:10:10;27.55;;;6.15;;
54259;SDS011;40172;53.022;7.012;2023-07-30T07:12:36;24.30;;;6.22;;
54259;SDS011;40172;53.022;7.012;2023-07-30T07:15:03;22.85;;;6.03;;
54259;SDS011;40172;53.022;7.012;2023-07-30T07:17:29;19.15;;;5.57;;
54259;SDS011;40172;53.022;7.012;2023-07-30T07:19:55;24.95;;;5.60;;
54259;SDS011;40172;53.022;7.012;2023-07-30T07:22:21;22.83;;;5.63;;
54259;SDS011;40172;53.022;7.012;2023-07-30T07:24:47;30.13;;;6.20;;
54259;SDS011;40172;53.022;7.012;2023-07-30T07:27:13;20.25;;;5.55;;
54259;SDS011;40172;53.022;7.012;2023-07-30T07:29:38;34.72;;;5.90;;
54259;SDS011;40172;53.022;7.012;2023-07-30T07:32:04;21.63;;;5.47;;
54259;SDS011;40172;53.022;7.012;2023-07-30T07:34:30;24.75;;;5.50;;
54259;SDS011;40172;53.022;7.012;2023-07-30T07:36:56;23.52;;;5.53;;
54259;SDS011;40172;53.022;7.012;2023-07-30T07:39:21;24.00;;;4.72;;
54259;SDS011;40172;53.022;7.012;2023-07-30T07:41:47;24.13;;;5.30;;
54259;SDS011;40172;53.022;7.012;2023-07-30T07:44:12;20.42;;;4.70;;
54259;SDS011;40172;53.022;7.012;2023-07-30T07:46:38;22.85;;;4.88;;
54259;SDS011;40172;53.022;7.012;2023-07-30T07:49:03;22.33;;;4.90;;
54259;SDS011;40172;53.022;7.012;2023-07-30T07:51:29;27.40;;;4.28;;
54259;SDS011;40172;53.022;7.012;2023-07-30T07:53:55;22.50;;;4.57;;
54259;SDS011;40172;53.022;7.012;2023-07-30T07:56:21;17.58;;;4.30;;
54259;SDS011;40172;53.022;7.012;2023-07-30T07:58:46;15.40;;;3.78;;
54259;SDS011;40172;53.022;7.012;2023-07-30T08:01:12;24.85;;;4.80;;
54259;SDS011;40172;53.022;7.012;2023-07-30T08:03:38;16.63;;;3.72;;
54259;SDS011;40172;53.022;7.012;2023-07-30T08:06:03;19.38;;;4.05;;
54259;SDS011;40172;53.022;7.012;2023-07-30T08:08:30;18.60;;;4.05;;
54259;SDS011;40172;53.022;7.012;2023-07-30T08:10:55;19.23;;;4.00;;
54259;SDS011;40172;53.022;7.012;2023-07-30T08:13:21;18.80;;;4.10;;
54259;SDS011;40172;53.022;7.012;2023-07-30T08:15:47;19.80;;;4.20;;
54259;SDS011;40172;53.022;7.012;2023-07-30T08:18:12;20.27;;;4.15;;
54259;SDS011;40172;53.022;7.012;2023-07-30T08:20:38;24.58;;;3.97;;
54259;SDS011;40172;53.022;7.012;2023-07-30T08:23:03;21.05;;;4.28;;
54259;SDS011;40172;53.022;7.012;2023-07-30T08:25:29;18.02;;;4.18;;
54259;SDS011;40172;53.022;7.012;2023-07-30T08:27:54;15.25;;;3.75;;
54259;SDS011;40172;53.022;7.012;2023-07-30T08:30:20;16.65;;;4.00;;
54259;SDS011;40172;53.022;7.012;2023-07-30T08:32:46;20.50;;;4.35;;
54259;SDS011;40172;53.022;7.012;2023-07-30T08:35:11;19.08;;;3.55;;
54259;SDS011;40172;53.022;7.012;2023-07-30T08:37:37;18.17;;;3.53;;
54259;SDS011;40172;53.022;7.012;2023-07-30T08:40:03;15.50;;;3.60;;
54259;SDS011;40172;53.022;7.012;2023-07-30T08:42:29;19.00;;;3.90;;
54259;SDS011;40172;53.022;7.012;2023-07-30T08:44:55;16.60;;;4.05;;
54259;SDS011;40172;53.022;7.012;2023-07-30T08:47:20;15.77;;;3.72;;
54259;SDS011;40172;53.022;7.012;2023-07-30T08:49:46;19.30;;;3.85;;
54259;SDS011;40172;53.022;7.012;2023-07-30T08:52:12;15.38;;;3.08;;
54259;SDS011;40172;53.022;7.012;2023-07-30T08:54:38;20.63;;;3.67;;
54259;SDS011;40172;53.022;7.012;2023-07-30T08:57:05;21.52;;;3.45;;
54259;SDS011;40172;53.022;7.012;2023-07-30T08:59:37;12.77;;;3.00;;
54259;SDS011;40172;53.022;7.012;2023-07-30T09:02:08;20.50;;;3.45;;
54259;SDS011;40172;53.022;7.012;2023-07-30T09:04:38;5.72;;;1.63;;
54259;SDS011;40172;53.022;7.012;2023-07-30T09:07:08;11.10;;;2.45;;
54259;SDS011;40172;53.022;7.012;2023-07-30T09:09:35;8.38;;;1.90;;
54259;SDS011;40172;53.022;7.012;2023-07-30T09:12:02;8.85;;;1.83;;
54259;SDS011;40172;53.022;7.012;2023-07-30T09:14:27;6.55;;;1.73;;
54259;SDS011;40172;53.022;7.012;2023-07-30T09:16:56;7.10;;;1.73;;
54259;SDS011;40172;53.022;7.012;2023-07-30T09:19:23;8.95;;;2.00;;
54259;SDS011;40172;53.022;7.012;2023-07-30T09:21:48;11.20;;;2.58;;
54259;SDS011;40172;53.022;7.012;2023-07-30T09:24:20;12.85;;;2.83;;
54259;SDS011;40172;53.022;7.012;2023-07-30T09:26:46;7.43;;;2.67;;
54259;SDS011;40172;53.022;7.012;2023-07-30T09:29:12;12.35;;;2.80;;
54259;SDS011;40172;53.022;7.012;2023-07-30T09:31:48;10.10;;;2.20;;
54259;SDS011;40172;53.022;7.012;2023-07-30T09:34:21;8.88;;;2.20;;
54259;SDS011;40172;53.022;7.012;2023-07-30T09:36:50;11.93;;;2.72;;
54259;SDS011;40172;53.022;7.012;2023-07-30T09:39:18;15.07;;;3.17;;
54259;SDS011;40172;53.022;7.012;2023-07-30T09:41:48;11.35;;;2.50;;
54259;SDS011;40172;53.022;7.012;2023-07-30T09:44:16;17.75;;;3.28;;
54259;SDS011;40172;53.022;7.012;2023-07-30T09:46:43;12.38;;;3.10;;
54259;SDS011;40172;53.022;7.012;2023-07-30T09:49:10;13.38;;;2.65;;
54259;SDS011;40172;53.022;7.012;2023-07-30T09:51:39;11.55;;;2.83;;
54259;SDS011;40172;53.022;7.012;2023-07-30T09:54:09;14.35;;;3.00;;
54259;SDS011;40172;53.022;7.012;2023-07-30T09:56:39;11.68;;;2.90;;
54259;SDS011;40172;53.022;7.012;2023-07-30T09:59:06;15.05;;;3.47;;
54259;SDS011;40172;53.022;7.012;2023-07-30T10:01:46;16.60;;;3.72;;
54259;SDS011;40172;53.022;7.012;2023-07-30T10:04:14;7.07;;;1.98;;
54259;SDS011;40172;53.022;7.012;2023-07-30T10:06:49;10.23;;;2.72;;
54259;SDS011;40172;53.022;7.012;2023-07-30T10:09:20;8.77;;;2.30;;
54259;SDS011;40172;53.022;7.012;2023-07-30T10:11:48;8.93;;;2.10;;
54259;SDS011;40172;53.022;7.012;2023-07-30T10:14:17;7.35;;;1.90;;
54259;SDS011;40172;53.022;7.012;2023-07-30T10:16:51;10.52;;;2.08;;
54259;SDS011;40172;53.022;7.012;2023-07-30T10:19:21;14.32;;;2.63;;
54259;SDS011;40172;53.022;7.012;2023-07-30T10:21:53;12.23;;;2.63;;
54259;SDS011;40172;53.022;7.012;2023-07-30T10:24:37;7.70;;;2.13;;
54259;SDS011;40172;53.022;7.012;2023-07-30T10:27:07;7.47;;;2.00;;
54259;SDS011;40172;53.022;7.012;2023-07-30T10:29:35;6.95;;;1.85;;
54259;SDS011;40172;53.022;7.012;2023-07-30T10:32:01;7.95;;;2.05;;
54259;SDS011;40172;53.022;7.012;2023-07-30T10:34:43;10.00;;;2.10;;
54259;SDS011;40172;53.022;7.012;2023-07-30T10:37:09;9.43;;;2.35;;
54259;SDS011;40172;53.022;7.012;2023-07-30T10:39:35;8.88;;;2.10;;
54259;SDS011;40172;53.022;7.012;2023-07-30T10:42:01;10.45;;;2.40;;
54259;SDS011;40172;53.022;7.012;2023-07-30T10:44:27;16.88;;;3.03;;
54259;SDS011;40172;53.022;7.012;2023-07-30T10:46:56;8.55;;;2.22;;
54259;SDS011;40172;53.022;7.012;2023-07-30T10:49:22;9.70;;;2.60;;
54259;SDS011;40172;53.022;7.012;2023-07-30T10:51:50;15.57;;;2.70;;
54259;SDS011;40172;53.022;7.012;2023-07-30T10:54:18;11.57;;;2.75;;
54259;SDS011;40172;53.022;7.012;2023-07-30T10:56:44;8.30;;;2.60;;
54259;SDS011;40172;53.022;7.012;2023-07-30T10:59:10;10.00;;;2.55;;
54259;SDS011;40172;53.022;7.012;2023-07-30T11:01:41;7.57;;;2.25;;
54259;SDS011;40172;53.022;7.012;2023-07-30T11:04:09;11.05;;;2.30;;
54259;SDS011;40172;53.022;7.012;2023-07-30T11:06:36;9.20;;;2.10;;
54259;SDS011;40172;53.022;7.012;2023-07-30T11:09:02;14.43;;;2.80;;
54259;SDS011;40172;53.022;7.012;2023-07-30T11:11:28;14.45;;;2.75;;
54259;SDS011;40172;53.022;7.012;2023-07-30T11:13:54;9.07;;;2.28;;
54259;SDS011;40172;53.022;7.012;2023-07-30T11:16:19;9.27;;;2.35;;
54259;SDS011;40172;53.022;7.012;2023-07-30T11:18:45;11.73;;;2.38;;
54259;SDS011;40172;53.022;7.012;2023-07-30T11:21:13;12.65;;;2.88;;
54259;SDS011;40172;53.022;7.012;2023-07-30T11:23:41;13.02;;;2.45;;
54259;SDS011;40172;53.022;7.012;2023-07-30T11:26:12;11.02;;;2.30;;
54259;SDS011;40172;53.022;7.012;2023-07-30T11:28:42;10.50;;;2.28;;
54259;SDS011;40172;53.022;7.012;2023-07-30T11:31:10;13.48;;;2.42;;
54259;SDS011;40172;53.022;7.012;2023-07-30T11:33:41;10.68;;;2.40;;
54259;SDS011;40172;53.022;7.012;2023-07-30T11:36:16;10.60;;;2.47;;
54259;SDS011;40172;53.022;7.012;2023-07-30T11:38:47;13.98;;;2.35;;
54259;SDS011;40172;53.022;7.012;2023-07-30T11:41:14;12.25;;;2.45;;
54259;SDS011;40172;53.022;7.012;2023-07-30T11:43:41;13.52;;;2.85;;
54259;SDS011;40172;53.022;7.012;2023-07-30T11:46:12;12.45;;;2.80;;
54259;SDS011;40172;53.022;7.012;2023-07-30T11:48:39;9.55;;;2.30;;
54259;SDS011;40172;53.022;7.012;2023-07-30T11:51:06;8.32;;;2.15;;
54259;SDS011;40172;53.022;7.012;2023-07-30T11:53:51;13.43;;;2.50;;
54259;SDS011;40172;53.022;7.012;2023-07-30T11:56:28;11.13;;;2.30;;
54259;SDS011;40172;53.022;7.012;2023-07-30T12:01:32;8.80;;;2.20;;
54259;SDS011;40172;53.022;7.012;2023-07-30T12:04:02;9.75;;;2.13;;
54259;SDS011;40172;53.022;7.012;2023-07-30T12:09:17;10.95;;;1.88;;
54259;SDS011;40172;53.022;7.012;2023-07-30T12:11:51;10.45;;;2.38;;
54259;SDS011;40172;53.022;7.012;2023-07-30T12:14:22;8.30;;;2.10;;
54259;SDS011;40172;53.022;7.012;2023-07-30T12:16:56;9.90;;;2.25;;
54259;SDS011;40172;53.022;7.012;2023-07-30T12:19:22;9.52;;;2.35;;
54259;SDS011;40172;53.022;7.012;2023-07-30T12:21:48;9.13;;;1.90;;
54259;SDS011;40172;53.022;7.012;2023-07-30T12:24:13;8.88;;;2.05;;
54259;SDS011;40172;53.022;7.012;2023-07-30T12:26:39;8.70;;;1.98;;
54259;SDS011;40172;53.022;7.012;2023-07-30T12:29:05;8.77;;;1.88;;
54259;SDS011;40172;53.022;7.012;2023-07-30T12:31:31;10.00;;;1.73;;
54259;SDS011;40172;53.022;7.012;2023-07-30T12:33:57;10.77;;;2.10;;
54259;SDS011;40172;53.022;7.012;2023-07-30T12:36:23;6.85;;;1.80;;
54259;SDS011;40172;53.022;7.012;2023-07-30T12:38:48;7.97;;;2.20;;
54259;SDS011;40172;53.022;7.012;2023-07-30T12:41:14;11.07;;;2.50;;
54259;SDS011;40172;53.022;7.012;2023-07-30T12:43:39;10.07;;;2.20;;
54259;SDS011;40172;53.022;7.012;2023-07-30T12:46:05;8.40;;;2.00;;
54259;SDS011;40172;53.022;7.012;2023-07-30T12:48:31;9.35;;;2.03;;
54259;SDS011;40172;53.022;7.012;2023-07-30T12:50:56;9.32;;;2.05;;
54259;SDS011;40172;53.022;7.012;2023-07-30T12:53:22;6.78;;;1.95;;
54259;SDS011;40172;53.022;7.012;2023-07-30T12:55:48;6.70;;;1.92;;
54259;SDS011;40172;53.022;7.012;2023-07-30T12:58:13;7.88;;;1.92;;
54259;SDS011;40172;53.022;7.012;2023-07-30T13:00:39;11.85;;;2.50;;
54259;SDS011;40172;53.022;7.012;2023-07-30T13:03:04;5.50;;;1.90;;
54259;SDS011;40172;53.022;7.012;2023-07-30T13:05:31;7.05;;;1.63;;
54259;SDS011;40172;53.022;7.012;2023-07-30T13:07:56;8.18;;;1.70;;
54259;SDS011;40172;53.022;7.012;2023-07-30T13:10:22;12.40;;;2.17;;
54259;SDS011;40172;53.022;7.012;2023-07-30T13:12:48;13.50;;;1.90;;
54259;SDS011;40172;53.022;7.012;2023-07-30T13:15:13;6.80;;;1.90;;
54259;SDS011;40172;53.022;7.012;2023-07-30T13:17:39;9.27;;;1.90;;
54259;SDS011;40172;53.022;7.012;2023-07-30T13:20:05;6.18;;;1.88;;
54259;SDS011;40172;53.022;7.012;2023-07-30T13:22:31;8.35;;;1.90;;
54259;SDS011;40172;53.022;7.012;2023-07-30T13:24:56;10.30;;;2.53;;
54259;SDS011;40172;53.022;7.012;2023-07-30T13:27:22;8.18;;;2.15;;
54259;SDS011;40172;53.022;7.012;2023-07-30T13:29:48;10.13;;;1.88;;
54259;SDS011;40172;53.022;7.012;2023-07-30T13:32:14;9.77;;;2.15;;
54259;SDS011;40172;53.022;7.012;2023-07-30T13:34:40;8.65;;;2.20;;
54259;SDS011;40172;53.022;7.012;2023-07-30T13:37:06;9.82;;;2.28;;
54259;SDS011;40172;53.022;7.012;2023-07-30T13:39:31;10.05;;;2.15;;
54259;SDS011;40172;53.022;7.012;2023-07-30T13:41:57;9.80;;;2.03;;
54259;SDS011;40172;53.022;7.012;2023-07-30T13:44:23;6.07;;;2.00;;
54259;SDS011;40172;53.022;7.012;2023-07-30T13:46:48;9.68;;;2.15;;
54259;SDS011;40172;53.022;7.012;2023-07-30T13:49:15;8.80;;;1.98;;
54259;SDS011;40172;53.022;7.012;2023-07-30T13:51:40;6.88;;;1.80;;
54259;SDS011;40172;53.022;7.012;2023-07-30T13:54:06;7.55;;;1.75;;
54259;SDS011;40172;53.022;7.012;2023-07-30T13:56:33;7.10;;;1.60;;
54259;SDS011;40172;53.022;7.012;2023-07-30T13:58:59;9.82;;;1.73;;
54259;SDS011;40172;53.022;7.012;2023-07-30T14:01:24;8.27;;;1.63;;
54259;SDS011;40172;53.022;7.012;2023-07-30T14:03:50;10.65;;;2.05;;
54259;SDS011;40172;53.022;7.012;2023-07-30T14:06:16;12.75;;;2.30;;
54259;SDS011;40172;53.022;7.012;2023-07-30T14:08:42;8.43;;;1.80;;
54259;SDS011;40172;53.022;7.012;2023-07-30T14:11:07;6.30;;;1.67;;
54259;SDS011;40172;53.022;7.012;2023-07-30T14:13:33;8.60;;;1.88;;
54259;SDS011;40172;53.022;7.012;2023-07-30T14:15:59;9.40;;;2.15;;
54259;SDS011;40172;53.022;7.012;2023-07-30T14:18:24;9.43;;;1.90;;
54259;SDS011;40172;53.022;7.012;2023-07-30T14:20:50;7.60;;;1.67;;
54259;SDS011;40172;53.022;7.012;2023-07-30T14:23:16;8.25;;;2.00;;
54259;SDS011;40172;53.022;7.012;2023-07-30T14:25:42;10.93;;;1.92;;
54259;SDS011;40172;53.022;7.012;2023-07-30T14:28:08;7.90;;;1.73;;
54259;SDS011;40172;53.022;7.012;2023-07-30T14:30:33;8.43;;;2.03;;
54259;SDS011;40172;53.022;7.012;2023-07-30T14:33:00;6.30;;;1.77;;
54259;SDS011;40172;53.022;7.012;2023-07-30T14:35:28;9.25;;;1.70;;
54259;SDS011;40172;53.022;7.012;2023-07-30T14:37:54;8.73;;;1.88;;
54259;SDS011;40172;53.022;7.012;2023-07-30T14:40:20;9.15;;;2.03;;
54259;SDS011;40172;53.022;7.012;2023-07-30T14:42:46;12.50;;;1.70;;